Luminous Kobe-2 — JJ3868 — position and weather

sailwx.info

Track history (hours):
 
Tides and Currents Weather Stations Pressure Air Temp Water Temp Dewpoint Dewpoint Depression Visibility Wind Speed Wind Dir Waves Ship Positions

Luminous Kobe-2

Last reported at 2014-Jul-30 06:25 UTC. Time now 2014-Jul-30 07:10 UTC.
Position N 34°41' E 135°11'.

Length 105 m; draft 4.5 m.

Type: Passenger vessel. MMSI: 431000469.

Date/timePositionNaut miles runAvg speedWind from/ knotsBaromVisibWave heightAir tempDewpointWater temp
2014-Jul-30 06:25N 34°41' E 135°11'0 0.0
2014-Jul-30 05:25N 34°41' E 135°11'2 2.5
2014-Jul-30 04:33N 34°39' E 135°11'3 2.6
2014-Jul-30 03:33N 34°37' E 135°14'4 4.1
2014-Jul-30 02:34N 34°41' E 135°11'0 0.0
2014-Jul-30 01:32N 34°41' E 135°11'0 0.0
2014-Jul-30 00:26N 34°41' E 135°11'0 0.0
2014-Jul-29 23:26N 34°41' E 135°11'0 0.0
2014-Jul-29 22:32N 34°41' E 135°11'0 0.0
2014-Jul-29 21:26N 34°41' E 135°11'0 0.0
2014-Jul-29 20:32N 34°41' E 135°11'0 0.0
2014-Jul-29 19:32N 34°41' E 135°11'0 0.0
2014-Jul-29 18:32N 34°41' E 135°11'0 0.0
2014-Jul-29 17:32N 34°41' E 135°11'0 0.0
2014-Jul-29 16:26N 34°41' E 135°11'0 0.0
2014-Jul-29 15:32N 34°41' E 135°11'0 0.0
2014-Jul-29 14:32N 34°41' E 135°11'0 0.0
2014-Jul-29 13:32N 34°41' E 135°11'0 0.0
2014-Jul-29 12:26N 34°41' E 135°11'7 8.4
2014-Jul-29 11:33N 34°35' E 135°06'2 1.7
2014-Jul-29 10:33N 34°37' E 135°06'6 5.5
2014-Jul-29 09:30N 34°41' E 135°11'0 0.0
2014-Jul-29 08:30N 34°41' E 135°11'4 4.6
2014-Jul-29 07:33N 34°38' E 135°08'4 4.3
2014-Jul-29 06:32N 34°41' E 135°11'0 0.0
2014-Jul-29 05:32N 34°41' E 135°11'2 2.2
2014-Jul-29 04:33N 34°39' E 135°11'2 2.5
2014-Jul-29 03:33N 34°37' E 135°13'4 4.2
2014-Jul-29 02:33N 34°41' E 135°11'0 0.0
2014-Jul-29 01:30N 34°41' E 135°11'0 0.0
2014-Jul-29 00:30N 34°41' E 135°11'0 0.0
2014-Jul-28 23:30N 34°41' E 135°11'0 0.0
2014-Jul-28 22:30N 34°41' E 135°11'0 0.0
2014-Jul-28 21:30N 34°41' E 135°11'0 0.0
2014-Jul-28 20:30N 34°41' E 135°11'0 0.0
2014-Jul-28 19:30N 34°41' E 135°11'0 0.0
2014-Jul-28 18:24N 34°41' E 135°11'0 0.0
2014-Jul-28 17:24N 34°41' E 135°11'0 0.0
2014-Jul-28 16:30N 34°41' E 135°11'0 0.0
2014-Jul-28 15:30N 34°41' E 135°11'0 0.0
2014-Jul-28 14:30N 34°41' E 135°11'0 0.0
2014-Jul-28 13:30N 34°41' E 135°11'0 0.0
2014-Jul-28 12:30N 34°41' E 135°11'7 7.8
2014-Jul-28 11:33N 34°35' E 135°06'2 1.9
2014-Jul-28 10:33N 34°36' E 135°08'5 5.1
2014-Jul-28 09:29N 34°41' E 135°11'5 5.6
2014-Jul-28 08:33N 34°37' E 135°07'5 5.1
2014-Jul-28 07:33N 34°41' E 135°11'0 0.0
2014-Jul-28 06:33N 34°41' E 135°11'0 0.0
2014-Jul-28 05:33N 34°41' E 135°11'2 2.2
2014-Jul-28 04:33N 34°39' E 135°11'1 0.7
2014-Jul-28 03:34N 34°38' E 135°11'3 2.9
2014-Jul-28 02:34N 34°41' E 135°11'0 0.0
2014-Jul-28 01:31N 34°41' E 135°11'0 0.0
2014-Jul-28 00:31N 34°41' E 135°11'0 0.0
2014-Jul-27 23:31N 34°41' E 135°11'0 0.0
2014-Jul-27 22:31N 34°41' E 135°11'0 0.0
2014-Jul-27 21:31N 34°41' E 135°11'0 0.0
2014-Jul-27 20:31N 34°41' E 135°11'0 0.0
2014-Jul-27 19:31N 34°41' E 135°11'0 0.0
2014-Jul-27 18:31N 34°41' E 135°11'0 0.0
2014-Jul-27 17:31N 34°41' E 135°11'0 0.0
2014-Jul-27 16:25N 34°41' E 135°11'0 0.0
2014-Jul-27 15:31N 34°41' E 135°11'0 0.0
2014-Jul-27 14:31N 34°41' E 135°11'0 0.0
2014-Jul-27 13:31N 34°41' E 135°11'0 0.0
2014-Jul-27 12:25N 34°41' E 135°11'7 8.2
2014-Jul-27 11:33N 34°36' E 135°05'1 1.2
2014-Jul-27 10:33N 34°36' E 135°07'6 5.7
2014-Jul-27 09:31N 34°41' E 135°11'2 2.1
2014-Jul-27 08:32N 34°39' E 135°11'2 2.5
2014-Jul-27 07:34N 34°37' E 135°14'4 3.9
2014-Jul-27 06:33N 34°41' E 135°11'0 0.0
2014-Jul-27 05:33N 34°41' E 135°11'2 2.1
2014-Jul-27 04:33N 34°39' E 135°11'2 2.5
2014-Jul-27 03:33N 34°37' E 135°14'4 3.9
2014-Jul-27 02:32N 34°41' E 135°11'0 0.0
2014-Jul-27 01:32N 34°41' E 135°11'0 0.0
2014-Jul-27 00:32N 34°41' E 135°11'0 0.0
2014-Jul-26 23:32N 34°41' E 135°11'0 0.0
2014-Jul-26 22:26N 34°41' E 135°11'0 0.0
2014-Jul-26 21:26N 34°41' E 135°11'0 0.0
2014-Jul-26 20:20N 34°41' E 135°11'0 0.0
2014-Jul-26 19:32N 34°41' E 135°11'0 0.0
2014-Jul-26 18:32N 34°41' E 135°11'0 0.0
2014-Jul-26 17:32N 34°41' E 135°11'0 0.0
2014-Jul-26 16:32N 34°41' E 135°11'0 0.0
2014-Jul-26 15:26N 34°41' E 135°11'0 0.0
2014-Jul-26 14:32N 34°41' E 135°11'0 0.0
2014-Jul-26 13:32N 34°41' E 135°11'0 0.0
2014-Jul-26 12:33N 34°41' E 135°11'6 5.8
2014-Jul-26 11:33N 34°42' E 135°18'4 3.9
2014-Jul-26 10:33N 34°38' E 135°17'5 5.3
2014-Jul-26 09:32N 34°41' E 135°11'1 0.6
2014-Jul-26 08:33N 34°40' E 135°12'3 3.5
2014-Jul-26 07:34N 34°37' E 135°14'4 4.1
2014-Jul-26 06:33N 34°41' E 135°11'0 0.0
2014-Jul-26 05:33N 34°41' E 135°11'2 2.2
2014-Jul-26 04:33N 34°39' E 135°11'3 2.7
2014-Jul-26 03:33N 34°37' E 135°14'4 4.1
2014-Jul-26 02:33N 34°41' E 135°11'0 0.0
2014-Jul-26 01:23N 34°41' E 135°11'0 0.0
2014-Jul-26 00:29N 34°41' E 135°11'0 0.0
2014-Jul-25 23:32N 34°41' E 135°11'0 0.0
2014-Jul-25 22:32N 34°41' E 135°11'0 0.0
2014-Jul-25 21:32N 34°41' E 135°11'0 0.0
2014-Jul-25 20:32N 34°41' E 135°11'0 0.0
2014-Jul-25 19:32N 34°41' E 135°11'0 0.0
2014-Jul-25 18:32N 34°41' E 135°11'0 0.0
2014-Jul-25 17:32N 34°41' E 135°11'0 0.0
2014-Jul-25 16:32N 34°41' E 135°11'0 0.0
2014-Jul-25 15:32N 34°41' E 135°11'0 0.0
2014-Jul-25 14:32N 34°41' E 135°11'0 0.0
2014-Jul-25 13:32N 34°41' E 135°11'0 0.0
2014-Jul-25 12:32N 34°41' E 135°11'7 7.2
2014-Jul-25 11:34N 34°35' E 135°06'2 1.6
2014-Jul-25 10:34N 34°37' E 135°06'6 6.0
2014-Jul-25 09:33N 34°41' E 135°11'0 0.0
2014-Jul-25 08:31N 34°41' E 135°11'4 4.6
2014-Jul-25 07:33N 34°38' E 135°08'4 4.1
2014-Jul-25 06:29N 34°41' E 135°11'0 0.0
2014-Jul-25 05:29N 34°41' E 135°11'2 2.2
2014-Jul-25 04:33N 34°39' E 135°11'3 2.9
2014-Jul-25 03:33N 34°37' E 135°14'4 3.6
2014-Jul-25 02:22N 34°41' E 135°11'0 0.0
2014-Jul-25 01:28N 34°41' E 135°11'0 0.0
2014-Jul-25 00:28N 34°41' E 135°11'0 0.0
2014-Jul-24 23:16N 34°41' E 135°11'0 0.0
2014-Jul-24 22:10N 34°41' E 135°11'0 0.0
2014-Jul-24 21:28N 34°41' E 135°11'0 0.0
2014-Jul-24 20:28N 34°41' E 135°11'0 0.0
2014-Jul-24 19:22N 34°41' E 135°11'0 0.0
2014-Jul-24 18:28N 34°41' E 135°11'0 0.0
2014-Jul-24 17:28N 34°41' E 135°11'0 0.0
2014-Jul-24 16:28N 34°41' E 135°11'0 0.0
2014-Jul-24 15:28N 34°41' E 135°11'0 0.0
2014-Jul-24 14:28N 34°41' E 135°11'0 0.0
2014-Jul-24 13:28N 34°41' E 135°11'0 0.0
2014-Jul-24 12:28N 34°41' E 135°11'6 6.6
2014-Jul-24 11:33N 34°36' E 135°07'1 0.8
2014-Jul-24 10:34N 34°37' E 135°06'6 5.7
2014-Jul-24 09:29N 34°41' E 135°11'5 5.4
2014-Jul-24 08:33N 34°37' E 135°07'5 5.0
2014-Jul-24 07:33N 34°41' E 135°11'0 0.0
2014-Jul-24 06:33N 34°41' E 135°11'0 0.0
2014-Jul-24 05:33N 34°41' E 135°11'2 2.0
2014-Jul-24 04:33N 34°39' E 135°11'2 2.4
2014-Jul-24 03:33N 34°37' E 135°14'4 3.3
2014-Jul-24 02:23N 34°41' E 135°11'0 0.0
2014-Jul-24 01:29N 34°41' E 135°11'0 0.0
2014-Jul-24 00:23N 34°41' E 135°11'0 0.0
2014-Jul-23 23:29N 34°41' E 135°11'0 0.0
2014-Jul-23 22:29N 34°41' E 135°11'0 0.0
2014-Jul-23 21:29N 34°41' E 135°11'0 0.0
2014-Jul-23 20:29N 34°41' E 135°11'0 0.0
2014-Jul-23 19:29N 34°41' E 135°11'0 0.0
2014-Jul-23 18:29N 34°41' E 135°11'0 0.0
2014-Jul-23 17:29N 34°41' E 135°11'0 0.0
2014-Jul-23 16:29N 34°41' E 135°11'0 0.0
2014-Jul-23 15:29N 34°41' E 135°11'0 0.0
2014-Jul-23 14:29N 34°41' E 135°11'0 0.0
2014-Jul-23 13:29N 34°41' E 135°11'0 0.0
2014-Jul-23 12:29N 34°41' E 135°11'7 7.1
2014-Jul-23 11:34N 34°36' E 135°06'1 1.1
2014-Jul-23 10:34N 34°37' E 135°06'6 5.7
2014-Jul-23 09:31N 34°41' E 135°11'5 5.4
2014-Jul-23 08:33N 34°37' E 135°07'5 4.8
2014-Jul-23 07:29N 34°41' E 135°11'0 0.0
2014-Jul-23 06:29N 34°41' E 135°11'0 0.0
2014-Jul-23 05:23N 34°41' E 135°11'2 2.4
2014-Jul-23 04:33N 34°39' E 135°11'2 2.2
2014-Jul-23 03:34N 34°37' E 135°13'4 3.9
2014-Jul-23 02:33N 34°41' E 135°11'0 0.0
2014-Jul-23 01:29N 34°41' E 135°11'0 0.0
2014-Jul-23 00:29N 34°41' E 135°11'0 0.0
2014-Jul-22 23:29N 34°41' E 135°11'0 0.0
2014-Jul-22 22:29N 34°41' E 135°11'0 0.0
2014-Jul-22 21:29N 34°41' E 135°11'0 0.0
2014-Jul-22 20:29N 34°41' E 135°11'0 0.0
2014-Jul-22 19:23N 34°41' E 135°11'0 0.0
2014-Jul-22 18:29N 34°41' E 135°11'0 0.0
2014-Jul-22 17:29N 34°41' E 135°11'0 0.0
2014-Jul-22 16:29N 34°41' E 135°11'0 0.0
2014-Jul-22 15:29N 34°41' E 135°11'0 0.0
2014-Jul-22 14:29N 34°41' E 135°11'0 0.0
2014-Jul-22 13:29N 34°41' E 135°11'0 0.0
2014-Jul-22 12:29N 34°41' E 135°11'6 6.5
2014-Jul-22 11:34N 34°36' E 135°07'1 0.9
2014-Jul-22 10:33N 34°37' E 135°07'6 5.2
2014-Jul-22 09:29N 34°41' E 135°11'5 5.8
2014-Jul-22 08:33N 34°37' E 135°07'5 5.2
2014-Jul-22 07:33N 34°41' E 135°11'0 0.0
2014-Jul-22 06:33N 34°41' E 135°11'0 0.0
2014-Jul-22 05:30N 34°41' E 135°11'2 2.2
2014-Jul-22 04:33N 34°39' E 135°11'2 2.5
2014-Jul-22 03:33N 34°37' E 135°14'4 3.6
2014-Jul-22 02:29N 34°41' E 135°11'0 0.0
2014-Jul-22 01:17N 34°41' E 135°11'0 0.0
2014-Jul-22 00:29N 34°41' E 135°11'0 0.0
2014-Jul-21 23:29N 34°41' E 135°11'0 0.0
2014-Jul-21 22:29N 34°41' E 135°11'0 0.0
2014-Jul-21 21:29N 34°41' E 135°11'0 0.0
2014-Jul-21 20:29N 34°41' E 135°11'0 0.0
2014-Jul-21 20:17N 34°41' E 135°11'0 0.0
2014-Jul-21 19:29N 34°41' E 135°11'0 0.0
2014-Jul-21 18:23N 34°41' E 135°11'0 0.0
2014-Jul-21 17:23N 34°41' E 135°11'0 0.0
2014-Jul-21 16:29N 34°41' E 135°11'0 0.0
2014-Jul-21 15:29N 34°41' E 135°11'0 0.0
2014-Jul-21 14:29N 34°41' E 135°11'0 0.0
2014-Jul-21 13:29N 34°41' E 135°11'0 0.0
2014-Jul-21 12:23N 34°41' E 135°11'7 8.0
2014-Jul-21 11:33N 34°36' E 135°06'1 0.8
2014-Jul-21 10:33N 34°37' E 135°06'6 5.5
2014-Jul-21 09:30N 34°41' E 135°11'2 1.9
2014-Jul-21 08:33N 34°39' E 135°11'2 2.5
2014-Jul-21 07:33N 34°37' E 135°13'4 3.7
2014-Jul-21 06:31N 34°41' E 135°11'0 0.0
2014-Jul-21 05:31N 34°41' E 135°11'2 2.0
2014-Jul-21 04:34N 34°39' E 135°11'2 2.1
2014-Jul-21 03:32N 34°38' E 135°13'4 3.3
2014-Jul-21 02:25N 34°41' E 135°11'0 0.0
2014-Jul-21 01:31N 34°41' E 135°11'0 0.0
2014-Jul-21 00:25N 34°41' E 135°11'0 0.0
2014-Jul-20 23:31N 34°41' E 135°11'0 0.0
2014-Jul-20 22:31N 34°41' E 135°11'0 0.0
2014-Jul-20 21:31N 34°41' E 135°11'0 0.0
2014-Jul-20 20:31N 34°41' E 135°11'0 0.0
2014-Jul-20 19:31N 34°41' E 135°11'0 0.0
2014-Jul-20 18:31N 34°41' E 135°11'0 0.0
2014-Jul-20 17:31N 34°41' E 135°11'0 0.0
2014-Jul-20 16:25N 34°41' E 135°11'0 0.0
2014-Jul-20 15:31N 34°41' E 135°11'0 0.0
2014-Jul-20 14:31N 34°41' E 135°11'0 0.0
2014-Jul-20 13:31N 34°41' E 135°11'0 0.2
2014-Jul-20 12:33N 34°41' E 135°12'1110.8
2014-Jul-20 11:33N 34°34' E 135°01'5 5.3
2014-Jul-20 10:33N 34°36' E 135°07'6 5.8
2014-Jul-20 09:32N 34°41' E 135°11'2 1.7
2014-Jul-20 08:33N 34°39' E 135°11'2 1.6
2014-Jul-20 07:33N 34°38' E 135°12'  
Track history (hours):
 
Tides and Currents Weather Stations Pressure Air Temp Water Temp Dewpoint Dewpoint Depression Visibility Wind Speed Wind Dir Waves Ship Positions

Luminous Kobe-2

Last reported at 2014-Jul-30 06:25 UTC. Time now 2014-Jul-30 07:10 UTC.
Position N 34°41' E 135°11'.

Length 105 m; draft 4.5 m.

Type: Passenger vessel. MMSI: 431000469.

Date/timePositionNaut miles runAvg speedWind from/ knotsBaromVisibWave heightAir tempDewpointWater temp
2014-Jul-30 06:25N 34°41' E 135°11'0 0.0
2014-Jul-30 05:25N 34°41' E 135°11'2 2.5
2014-Jul-30 04:33N 34°39' E 135°11'3 2.6
2014-Jul-30 03:33N 34°37' E 135°14'4 4.1
2014-Jul-30 02:34N 34°41' E 135°11'0 0.0
2014-Jul-30 01:32N 34°41' E 135°11'0 0.0
2014-Jul-30 00:26N 34°41' E 135°11'0 0.0
2014-Jul-29 23:26N 34°41' E 135°11'0 0.0
2014-Jul-29 22:32N 34°41' E 135°11'0 0.0
2014-Jul-29 21:26N 34°41' E 135°11'0 0.0
2014-Jul-29 20:32N 34°41' E 135°11'0 0.0
2014-Jul-29 19:32N 34°41' E 135°11'0 0.0
2014-Jul-29 18:32N 34°41' E 135°11'0 0.0
2014-Jul-29 17:32N 34°41' E 135°11'0 0.0
2014-Jul-29 16:26N 34°41' E 135°11'0 0.0
2014-Jul-29 15:32N 34°41' E 135°11'0 0.0
2014-Jul-29 14:32N 34°41' E 135°11'0 0.0
2014-Jul-29 13:32N 34°41' E 135°11'0 0.0
2014-Jul-29 12:26N 34°41' E 135°11'7 8.4
2014-Jul-29 11:33N 34°35' E 135°06'2 1.7
2014-Jul-29 10:33N 34°37' E 135°06'6 5.5
2014-Jul-29 09:30N 34°41' E 135°11'0 0.0
2014-Jul-29 08:30N 34°41' E 135°11'4 4.6
2014-Jul-29 07:33N 34°38' E 135°08'4 4.3
2014-Jul-29 06:32N 34°41' E 135°11'0 0.0
2014-Jul-29 05:32N 34°41' E 135°11'2 2.2
2014-Jul-29 04:33N 34°39' E 135°11'2 2.5
2014-Jul-29 03:33N 34°37' E 135°13'4 4.2
2014-Jul-29 02:33N 34°41' E 135°11'0 0.0
2014-Jul-29 01:30N 34°41' E 135°11'0 0.0
2014-Jul-29 00:30N 34°41' E 135°11'0 0.0
2014-Jul-28 23:30N 34°41' E 135°11'0 0.0
2014-Jul-28 22:30N 34°41' E 135°11'0 0.0
2014-Jul-28 21:30N 34°41' E 135°11'0 0.0
2014-Jul-28 20:30N 34°41' E 135°11'0 0.0
2014-Jul-28 19:30N 34°41' E 135°11'0 0.0
2014-Jul-28 18:24N 34°41' E 135°11'0 0.0
2014-Jul-28 17:24N 34°41' E 135°11'0 0.0
2014-Jul-28 16:30N 34°41' E 135°11'0 0.0
2014-Jul-28 15:30N 34°41' E 135°11'0 0.0
2014-Jul-28 14:30N 34°41' E 135°11'0 0.0
2014-Jul-28 13:30N 34°41' E 135°11'0 0.0
2014-Jul-28 12:30N 34°41' E 135°11'7 7.8
2014-Jul-28 11:33N 34°35' E 135°06'2 1.9
2014-Jul-28 10:33N 34°36' E 135°08'5 5.1
2014-Jul-28 09:29N 34°41' E 135°11'5 5.6
2014-Jul-28 08:33N 34°37' E 135°07'5 5.1
2014-Jul-28 07:33N 34°41' E 135°11'0 0.0
2014-Jul-28 06:33N 34°41' E 135°11'0 0.0
2014-Jul-28 05:33N 34°41' E 135°11'2 2.2
2014-Jul-28 04:33N 34°39' E 135°11'1 0.7
2014-Jul-28 03:34N 34°38' E 135°11'3 2.9
2014-Jul-28 02:34N 34°41' E 135°11'0 0.0
2014-Jul-28 01:31N 34°41' E 135°11'0 0.0
2014-Jul-28 00:31N 34°41' E 135°11'0 0.0
2014-Jul-27 23:31N 34°41' E 135°11'0 0.0
2014-Jul-27 22:31N 34°41' E 135°11'0 0.0
2014-Jul-27 21:31N 34°41' E 135°11'0 0.0
2014-Jul-27 20:31N 34°41' E 135°11'0 0.0
2014-Jul-27 19:31N 34°41' E 135°11'0 0.0
2014-Jul-27 18:31N 34°41' E 135°11'0 0.0
2014-Jul-27 17:31N 34°41' E 135°11'0 0.0
2014-Jul-27 16:25N 34°41' E 135°11'0 0.0
2014-Jul-27 15:31N 34°41' E 135°11'0 0.0
2014-Jul-27 14:31N 34°41' E 135°11'0 0.0
2014-Jul-27 13:31N 34°41' E 135°11'0 0.0
2014-Jul-27 12:25N 34°41' E 135°11'7 8.2
2014-Jul-27 11:33N 34°36' E 135°05'1 1.2
2014-Jul-27 10:33N 34°36' E 135°07'6 5.7
2014-Jul-27 09:31N 34°41' E 135°11'2 2.1
2014-Jul-27 08:32N 34°39' E 135°11'2 2.5
2014-Jul-27 07:34N 34°37' E 135°14'4 3.9
2014-Jul-27 06:33N 34°41' E 135°11'0 0.0
2014-Jul-27 05:33N 34°41' E 135°11'2 2.1
2014-Jul-27 04:33N 34°39' E 135°11'2 2.5
2014-Jul-27 03:33N 34°37' E 135°14'4 3.9
2014-Jul-27 02:32N 34°41' E 135°11'0 0.0
2014-Jul-27 01:32N 34°41' E 135°11'0 0.0
2014-Jul-27 00:32N 34°41' E 135°11'0 0.0
2014-Jul-26 23:32N 34°41' E 135°11'0 0.0
2014-Jul-26 22:26N 34°41' E 135°11'0 0.0
2014-Jul-26 21:26N 34°41' E 135°11'0 0.0
2014-Jul-26 20:20N 34°41' E 135°11'0 0.0
2014-Jul-26 19:32N 34°41' E 135°11'0 0.0
2014-Jul-26 18:32N 34°41' E 135°11'0 0.0
2014-Jul-26 17:32N 34°41' E 135°11'0 0.0
2014-Jul-26 16:32N 34°41' E 135°11'0 0.0
2014-Jul-26 15:26N 34°41' E 135°11'0 0.0
2014-Jul-26 14:32N 34°41' E 135°11'0 0.0
2014-Jul-26 13:32N 34°41' E 135°11'0 0.0
2014-Jul-26 12:33N 34°41' E 135°11'6 5.8
2014-Jul-26 11:33N 34°42' E 135°18'4 3.9
2014-Jul-26 10:33N 34°38' E 135°17'5 5.3
2014-Jul-26 09:32N 34°41' E 135°11'1 0.6
2014-Jul-26 08:33N 34°40' E 135°12'3 3.5
2014-Jul-26 07:34N 34°37' E 135°14'4 4.1
2014-Jul-26 06:33N 34°41' E 135°11'0 0.0
2014-Jul-26 05:33N 34°41' E 135°11'2 2.2
2014-Jul-26 04:33N 34°39' E 135°11'3 2.7
2014-Jul-26 03:33N 34°37' E 135°14'4 4.1
2014-Jul-26 02:33N 34°41' E 135°11'0 0.0
2014-Jul-26 01:23N 34°41' E 135°11'0 0.0
2014-Jul-26 00:29N 34°41' E 135°11'0 0.0
2014-Jul-25 23:32N 34°41' E 135°11'0 0.0
2014-Jul-25 22:32N 34°41' E 135°11'0 0.0
2014-Jul-25 21:32N 34°41' E 135°11'0 0.0
2014-Jul-25 20:32N 34°41' E 135°11'0 0.0
2014-Jul-25 19:32N 34°41' E 135°11'0 0.0
2014-Jul-25 18:32N 34°41' E 135°11'0 0.0
2014-Jul-25 17:32N 34°41' E 135°11'0 0.0
2014-Jul-25 16:32N 34°41' E 135°11'0 0.0
2014-Jul-25 15:32N 34°41' E 135°11'0 0.0
2014-Jul-25 14:32N 34°41' E 135°11'0 0.0
2014-Jul-25 13:32N 34°41' E 135°11'0 0.0
2014-Jul-25 12:32N 34°41' E 135°11'7 7.2
2014-Jul-25 11:34N 34°35' E 135°06'2 1.6
2014-Jul-25 10:34N 34°37' E 135°06'6 6.0
2014-Jul-25 09:33N 34°41' E 135°11'0 0.0
2014-Jul-25 08:31N 34°41' E 135°11'4 4.6
2014-Jul-25 07:33N 34°38' E 135°08'4 4.1
2014-Jul-25 06:29N 34°41' E 135°11'0 0.0
2014-Jul-25 05:29N 34°41' E 135°11'2 2.2
2014-Jul-25 04:33N 34°39' E 135°11'3 2.9
2014-Jul-25 03:33N 34°37' E 135°14'4 3.6
2014-Jul-25 02:22N 34°41' E 135°11'0 0.0
2014-Jul-25 01:28N 34°41' E 135°11'0 0.0
2014-Jul-25 00:28N 34°41' E 135°11'0 0.0
2014-Jul-24 23:16N 34°41' E 135°11'0 0.0
2014-Jul-24 22:10N 34°41' E 135°11'0 0.0
2014-Jul-24 21:28N 34°41' E 135°11'0 0.0
2014-Jul-24 20:28N 34°41' E 135°11'0 0.0
2014-Jul-24 19:22N 34°41' E 135°11'0 0.0
2014-Jul-24 18:28N 34°41' E 135°11'0 0.0
2014-Jul-24 17:28N 34°41' E 135°11'0 0.0
2014-Jul-24 16:28N 34°41' E 135°11'0 0.0
2014-Jul-24 15:28N 34°41' E 135°11'0 0.0
2014-Jul-24 14:28N 34°41' E 135°11'0 0.0
2014-Jul-24 13:28N 34°41' E 135°11'0 0.0
2014-Jul-24 12:28N 34°41' E 135°11'6 6.6
2014-Jul-24 11:33N 34°36' E 135°07'1 0.8
2014-Jul-24 10:34N 34°37' E 135°06'6 5.7
2014-Jul-24 09:29N 34°41' E 135°11'5 5.4
2014-Jul-24 08:33N 34°37' E 135°07'5 5.0
2014-Jul-24 07:33N 34°41' E 135°11'0 0.0
2014-Jul-24 06:33N 34°41' E 135°11'0 0.0
2014-Jul-24 05:33N 34°41' E 135°11'2 2.0
2014-Jul-24 04:33N 34°39' E 135°11'2 2.4
2014-Jul-24 03:33N 34°37' E 135°14'4 3.3
2014-Jul-24 02:23N 34°41' E 135°11'0 0.0
2014-Jul-24 01:29N 34°41' E 135°11'0 0.0
2014-Jul-24 00:23N 34°41' E 135°11'0 0.0
2014-Jul-23 23:29N 34°41' E 135°11'0 0.0
2014-Jul-23 22:29N 34°41' E 135°11'0 0.0
2014-Jul-23 21:29N 34°41' E 135°11'0 0.0
2014-Jul-23 20:29N 34°41' E 135°11'0 0.0
2014-Jul-23 19:29N 34°41' E 135°11'0 0.0
2014-Jul-23 18:29N 34°41' E 135°11'0 0.0
2014-Jul-23 17:29N 34°41' E 135°11'0 0.0
2014-Jul-23 16:29N 34°41' E 135°11'0 0.0
2014-Jul-23 15:29N 34°41' E 135°11'0 0.0
2014-Jul-23 14:29N 34°41' E 135°11'0 0.0
2014-Jul-23 13:29N 34°41' E 135°11'0 0.0
2014-Jul-23 12:29N 34°41' E 135°11'7 7.1
2014-Jul-23 11:34N 34°36' E 135°06'1 1.1
2014-Jul-23 10:34N 34°37' E 135°06'6 5.7
2014-Jul-23 09:31N 34°41' E 135°11'5 5.4
2014-Jul-23 08:33N 34°37' E 135°07'5 4.8
2014-Jul-23 07:29N 34°41' E 135°11'0 0.0
2014-Jul-23 06:29N 34°41' E 135°11'0 0.0
2014-Jul-23 05:23N 34°41' E 135°11'2 2.4
2014-Jul-23 04:33N 34°39' E 135°11'2 2.2
2014-Jul-23 03:34N 34°37' E 135°13'4 3.9
2014-Jul-23 02:33N 34°41' E 135°11'0 0.0
2014-Jul-23 01:29N 34°41' E 135°11'0 0.0
2014-Jul-23 00:29N 34°41' E 135°11'0 0.0
2014-Jul-22 23:29N 34°41' E 135°11'0 0.0
2014-Jul-22 22:29N 34°41' E 135°11'0 0.0
2014-Jul-22 21:29N 34°41' E 135°11'0 0.0
2014-Jul-22 20:29N 34°41' E 135°11'0 0.0
2014-Jul-22 19:23N 34°41' E 135°11'0 0.0
2014-Jul-22 18:29N 34°41' E 135°11'0 0.0
2014-Jul-22 17:29N 34°41' E 135°11'0 0.0
2014-Jul-22 16:29N 34°41' E 135°11'0 0.0
2014-Jul-22 15:29N 34°41' E 135°11'0 0.0
2014-Jul-22 14:29N 34°41' E 135°11'0 0.0
2014-Jul-22 13:29N 34°41' E 135°11'0 0.0
2014-Jul-22 12:29N 34°41' E 135°11'6 6.5
2014-Jul-22 11:34N 34°36' E 135°07'1 0.9
2014-Jul-22 10:33N 34°37' E 135°07'6 5.2
2014-Jul-22 09:29N 34°41' E 135°11'5 5.8
2014-Jul-22 08:33N 34°37' E 135°07'5 5.2
2014-Jul-22 07:33N 34°41' E 135°11'0 0.0
2014-Jul-22 06:33N 34°41' E 135°11'0 0.0
2014-Jul-22 05:30N 34°41' E 135°11'2 2.2
2014-Jul-22 04:33N 34°39' E 135°11'2 2.5
2014-Jul-22 03:33N 34°37' E 135°14'4 3.6
2014-Jul-22 02:29N 34°41' E 135°11'0 0.0
2014-Jul-22 01:17N 34°41' E 135°11'0 0.0
2014-Jul-22 00:29N 34°41' E 135°11'0 0.0
2014-Jul-21 23:29N 34°41' E 135°11'0 0.0
2014-Jul-21 22:29N 34°41' E 135°11'0 0.0
2014-Jul-21 21:29N 34°41' E 135°11'0 0.0
2014-Jul-21 20:29N 34°41' E 135°11'0 0.0
2014-Jul-21 20:17N 34°41' E 135°11'0 0.0
2014-Jul-21 19:29N 34°41' E 135°11'0 0.0
2014-Jul-21 18:23N 34°41' E 135°11'0 0.0
2014-Jul-21 17:23N 34°41' E 135°11'0 0.0
2014-Jul-21 16:29N 34°41' E 135°11'0 0.0
2014-Jul-21 15:29N 34°41' E 135°11'0 0.0
2014-Jul-21 14:29N 34°41' E 135°11'0 0.0
2014-Jul-21 13:29N 34°41' E 135°11'0 0.0
2014-Jul-21 12:23N 34°41' E 135°11'7 8.0
2014-Jul-21 11:33N 34°36' E 135°06'1 0.8
2014-Jul-21 10:33N 34°37' E 135°06'6 5.5
2014-Jul-21 09:30N 34°41' E 135°11'2 1.9
2014-Jul-21 08:33N 34°39' E 135°11'2 2.5
2014-Jul-21 07:33N 34°37' E 135°13'4 3.7
2014-Jul-21 06:31N 34°41' E 135°11'0 0.0
2014-Jul-21 05:31N 34°41' E 135°11'2 2.0
2014-Jul-21 04:34N 34°39' E 135°11'2 2.1
2014-Jul-21 03:32N 34°38' E 135°13'4 3.3
2014-Jul-21 02:25N 34°41' E 135°11'0 0.0
2014-Jul-21 01:31N 34°41' E 135°11'0 0.0
2014-Jul-21 00:25N 34°41' E 135°11'0 0.0
2014-Jul-20 23:31N 34°41' E 135°11'0 0.0
2014-Jul-20 22:31N 34°41' E 135°11'0 0.0
2014-Jul-20 21:31N 34°41' E 135°11'0 0.0
2014-Jul-20 20:31N 34°41' E 135°11'0 0.0
2014-Jul-20 19:31N 34°41' E 135°11'0 0.0
2014-Jul-20 18:31N 34°41' E 135°11'0 0.0
2014-Jul-20 17:31N 34°41' E 135°11'0 0.0
2014-Jul-20 16:25N 34°41' E 135°11'0 0.0
2014-Jul-20 15:31N 34°41' E 135°11'0 0.0
2014-Jul-20 14:31N 34°41' E 135°11'0 0.0
2014-Jul-20 13:31N 34°41' E 135°11'0 0.2
2014-Jul-20 12:33N 34°41' E 135°12'1110.8
2014-Jul-20 11:33N 34°34' E 135°01'5 5.3
2014-Jul-20 10:33N 34°36' E 135°07'6 5.8
2014-Jul-20 09:32N 34°41' E 135°11'2 1.7
2014-Jul-20 08:33N 34°39' E 135°11'2 1.6
2014-Jul-20 07:33N 34°38' E 135°12'  

Dump ship's entire track history